Hai Yang Shi You 708 — BFDL — position and weather

sailwx.info

Track history (hours):
 
Tides and Currents Weather Stations Pressure Air Temp Water Temp Dewpoint Dewpoint Depression Visibility Wind Speed Wind Dir Waves Ship Positions

Hai Yang Shi You 708

Last reported at 2014-Dec-20 04:16 UTC. Time now 2014-Dec-21 04:04 UTC.
Position N 23°05' E 113°25'.

Length 105 m; draft 6.4 m.

Type: Other ship. MMSI: 413303010.

Date/timePositionNaut miles runAvg speedWind from/ knotsBaromVisibWave heightAir tempDewpointWater temp
2014-Dec-20 04:16N 23°05' E 113°25'0 0.0
2014-Dec-20 03:16N 23°05' E 113°25'0 0.0
2014-Dec-20 02:22N 23°05' E 113°25'0 0.0
2014-Dec-20 01:28N 23°05' E 113°25'0 0.0
2014-Dec-20 00:28N 23°05' E 113°25'0 0.0
2014-Dec-19 23:16N 23°05' E 113°25'0 0.0
2014-Dec-19 22:28N 23°05' E 113°25'0 0.0
2014-Dec-19 21:28N 23°05' E 113°25'0 0.0
2014-Dec-19 20:28N 23°05' E 113°25'0 0.0
2014-Dec-19 19:28N 23°05' E 113°25'0 0.0
2014-Dec-19 18:28N 23°05' E 113°25'0 0.0
2014-Dec-19 17:28N 23°05' E 113°25'0 0.0
2014-Dec-19 16:28N 23°05' E 113°25'0 0.0
2014-Dec-19 15:28N 23°05' E 113°25'0 0.0
2014-Dec-19 14:33N 23°05' E 113°25'0 0.0
2014-Dec-19 13:28N 23°05' E 113°25'0 0.0
2014-Dec-19 12:28N 23°05' E 113°25'0 0.0
2014-Dec-19 11:28N 23°05' E 113°25'0 0.0
2014-Dec-19 10:28N 23°05' E 113°25'0 0.0
2014-Dec-19 09:28N 23°05' E 113°25'0 0.0
2014-Dec-19 08:33N 23°05' E 113°25'4 3.6
2014-Dec-19 07:32N 23°04' E 113°29'8 8.4
2014-Dec-19 06:33N 22°57' E 113°33'9 8.6
2014-Dec-19 05:33N 22°49' E 113°36'24 9.9
2014-Dec-19 03:08N 22°26' E 113°45'610.4
2014-Dec-19 02:33N 22°21' E 113°48'9 9.2
2014-Dec-19 01:33N 22°12' E 113°47'10 9.7
2014-Dec-19 00:33N 22°02' E 113°45'9 0.4
2014-Dec-17 23:33N 21°54' E 113°41'7 7.4
2014-Dec-17 22:33N 21°50' E 113°34'9 7.7
2014-Dec-17 21:20N 21°46' E 113°25'7 7.8
2014-Dec-17 20:29N 21°43' E 113°18'18 7.9
2014-Dec-17 18:13N 21°35' E 113°01'  
Track history (hours):
 
Tides and Currents Weather Stations Pressure Air Temp Water Temp Dewpoint Dewpoint Depression Visibility Wind Speed Wind Dir Waves Ship Positions

Hai Yang Shi You 708

Last reported at 2014-Dec-20 04:16 UTC. Time now 2014-Dec-21 04:04 UTC.
Position N 23°05' E 113°25'.

Length 105 m; draft 6.4 m.

Type: Other ship. MMSI: 413303010.

Date/timePositionNaut miles runAvg speedWind from/ knotsBaromVisibWave heightAir tempDewpointWater temp
2014-Dec-20 04:16N 23°05' E 113°25'0 0.0
2014-Dec-20 03:16N 23°05' E 113°25'0 0.0
2014-Dec-20 02:22N 23°05' E 113°25'0 0.0
2014-Dec-20 01:28N 23°05' E 113°25'0 0.0
2014-Dec-20 00:28N 23°05' E 113°25'0 0.0
2014-Dec-19 23:16N 23°05' E 113°25'0 0.0
2014-Dec-19 22:28N 23°05' E 113°25'0 0.0
2014-Dec-19 21:28N 23°05' E 113°25'0 0.0
2014-Dec-19 20:28N 23°05' E 113°25'0 0.0
2014-Dec-19 19:28N 23°05' E 113°25'0 0.0
2014-Dec-19 18:28N 23°05' E 113°25'0 0.0
2014-Dec-19 17:28N 23°05' E 113°25'0 0.0
2014-Dec-19 16:28N 23°05' E 113°25'0 0.0
2014-Dec-19 15:28N 23°05' E 113°25'0 0.0
2014-Dec-19 14:33N 23°05' E 113°25'0 0.0
2014-Dec-19 13:28N 23°05' E 113°25'0 0.0
2014-Dec-19 12:28N 23°05' E 113°25'0 0.0
2014-Dec-19 11:28N 23°05' E 113°25'0 0.0
2014-Dec-19 10:28N 23°05' E 113°25'0 0.0
2014-Dec-19 09:28N 23°05' E 113°25'0 0.0
2014-Dec-19 08:33N 23°05' E 113°25'4 3.6
2014-Dec-19 07:32N 23°04' E 113°29'8 8.4
2014-Dec-19 06:33N 22°57' E 113°33'9 8.6
2014-Dec-19 05:33N 22°49' E 113°36'24 9.9
2014-Dec-19 03:08N 22°26' E 113°45'610.4
2014-Dec-19 02:33N 22°21' E 113°48'9 9.2
2014-Dec-19 01:33N 22°12' E 113°47'10 9.7
2014-Dec-19 00:33N 22°02' E 113°45'9 0.4
2014-Dec-17 23:33N 21°54' E 113°41'7 7.4
2014-Dec-17 22:33N 21°50' E 113°34'9 7.7
2014-Dec-17 21:20N 21°46' E 113°25'7 7.8
2014-Dec-17 20:29N 21°43' E 113°18'18 7.9
2014-Dec-17 18:13N 21°35' E 113°01'  

Dump ship's entire track history